createdAt,value
2022-10-13T00:04:22.587Z,26.40
2022-10-13T00:19:22.704Z,22.50
2022-10-13T00:34:23.457Z,18.70
2022-10-13T00:49:23.937Z,16.90
2022-10-13T01:04:24.583Z,21.00
2022-10-13T01:19:24.179Z,23.30
2022-10-13T01:34:24.310Z,15.30
2022-10-13T01:49:24.989Z,18.30
2022-10-13T02:04:25.563Z,12.60
2022-10-13T02:19:25.723Z,19.70
2022-10-13T02:34:25.833Z,13.30
2022-10-13T02:49:26.416Z,15.50
2022-10-13T03:04:27.097Z,13.80
2022-10-13T03:19:27.141Z,10.80
2022-10-13T03:34:27.826Z,12.30
2022-10-13T03:49:28.427Z,17.00
2022-10-13T04:04:28.555Z,18.50
2022-10-13T04:19:28.654Z,21.10
2022-10-13T04:34:28.812Z,22.40
2022-10-13T04:49:29.386Z,26.40
2022-10-13T05:04:29.490Z,24.50
2022-10-13T05:19:29.087Z,23.30
2022-10-13T05:34:29.753Z,21.80
2022-10-13T05:49:30.830Z,28.50
2022-10-13T06:04:30.982Z,23.60
2022-10-13T06:19:31.564Z,31.90
2022-10-13T06:34:33.177Z,24.50
2022-10-13T06:49:32.793Z,31.00
2022-10-13T07:04:32.918Z,39.70
2022-10-13T07:19:32.994Z,35.70
2022-10-13T07:34:33.140Z,38.50
2022-10-13T07:49:33.235Z,27.30
2022-10-13T08:04:33.897Z,22.60
2022-10-13T08:19:34.461Z,18.90
2022-10-13T08:34:34.597Z,19.30
2022-10-13T08:49:34.715Z,20.00
2022-10-13T09:04:35.004Z,22.20
2022-10-13T09:19:35.374Z,20.60
2022-10-13T09:34:35.475Z,16.30
2022-10-13T09:49:35.089Z,15.80
2022-10-13T10:04:35.236Z,16.20
2022-10-13T10:19:35.322Z,15.40
2022-10-13T10:34:35.979Z,16.40
2022-10-13T10:49:37.015Z,17.10
2022-10-13T11:04:36.655Z,14.70
2022-10-13T11:19:37.227Z,15.70
2022-10-13T11:34:36.847Z,22.40
2022-10-13T11:49:36.981Z,18.40
2022-10-13T12:04:37.153Z,19.70
2022-10-13T12:19:37.685Z,17.50
2022-10-13T12:34:37.805Z,15.60
2022-10-13T12:49:37.428Z,15.40
2022-10-13T13:04:37.997Z,11.30
2022-10-13T13:19:37.582Z,10.40
2022-10-13T13:34:37.707Z,12.00
2022-10-13T13:49:38.384Z,11.80
2022-10-13T14:04:38.477Z,15.20
2022-10-13T14:19:39.465Z,13.40
2022-10-13T14:34:39.922Z,8.40
2022-10-13T14:49:40.027Z,11.20
2022-10-13T15:04:40.657Z,7.60
2022-10-13T15:19:41.682Z,10.00
2022-10-13T15:34:41.363Z,15.60
2022-10-13T15:49:41.906Z,12.40
2022-10-13T16:04:42.105Z,15.20
2022-10-13T16:19:43.978Z,20.00
2022-10-13T16:34:44.551Z,16.50
2022-10-13T16:49:44.681Z,17.70
2022-10-13T17:04:45.231Z,17.30
2022-10-13T17:19:45.390Z,13.60
2022-10-13T17:34:45.946Z,17.70
2022-10-13T17:49:46.050Z,16.60
2022-10-13T18:04:45.731Z,19.60
2022-10-13T18:19:45.846Z,31.60
2022-10-13T18:34:47.748Z,37.40
2022-10-13T18:49:49.614Z,46.60
2022-10-13T19:04:50.196Z,46.90
2022-10-13T19:19:51.100Z,44.10
2022-10-13T19:34:53.055Z,43.30
2022-10-13T19:49:54.445Z,38.50
2022-10-13T20:04:54.669Z,39.80
2022-10-13T20:19:56.567Z,30.40
2022-10-13T20:34:57.427Z,30.70
2022-10-13T20:49:57.551Z,32.50
2022-10-13T21:04:57.675Z,24.10
2022-10-13T21:19:57.786Z,33.20
2022-10-13T21:34:58.016Z,38.10
2022-10-13T21:49:58.018Z,32.00
2022-10-13T22:04:58.126Z,35.80
2022-10-13T22:19:58.239Z,36.90
2022-10-13T22:34:59.648Z,36.70
2022-10-13T22:50:00.746Z,36.80
2022-10-13T23:05:00.377Z,34.70
2022-10-13T23:20:02.248Z,35.70
2022-10-13T23:35:01.844Z,31.60
2022-10-13T23:50:02.489Z,34.10
